sensor_id;sensor_type;location;lat;lon;timestamp;P1;durP1;ratioP1;P2;durP2;ratioP2
68353;SDS011;55274;43.060;25.618;2023-05-10T00:00:33;8.70;;;4.13;;
68353;SDS011;55274;43.060;25.618;2023-05-10T00:02:59;6.18;;;3.90;;
68353;SDS011;55274;43.060;25.618;2023-05-10T00:05:24;7.97;;;4.00;;
68353;SDS011;55274;43.060;25.618;2023-05-10T00:07:50;12.20;;;4.10;;
68353;SDS011;55274;43.060;25.618;2023-05-10T00:10:16;7.18;;;3.80;;
68353;SDS011;55274;43.060;25.618;2023-05-10T00:12:42;7.50;;;3.97;;
68353;SDS011;55274;43.060;25.618;2023-05-10T00:15:08;8.43;;;3.60;;
68353;SDS011;55274;43.060;25.618;2023-05-10T00:17:34;6.88;;;3.70;;
68353;SDS011;55274;43.060;25.618;2023-05-10T00:20:00;6.88;;;3.35;;
68353;SDS011;55274;43.060;25.618;2023-05-10T00:22:26;6.10;;;3.40;;
68353;SDS011;55274;43.060;25.618;2023-05-10T00:24:51;7.72;;;3.80;;
68353;SDS011;55274;43.060;25.618;2023-05-10T00:27:17;5.55;;;2.80;;
68353;SDS011;55274;43.060;25.618;2023-05-10T00:29:43;4.85;;;3.00;;
68353;SDS011;55274;43.060;25.618;2023-05-10T00:32:08;5.22;;;3.00;;
68353;SDS011;55274;43.060;25.618;2023-05-10T00:34:34;5.32;;;3.30;;
68353;SDS011;55274;43.060;25.618;2023-05-10T00:37:00;5.15;;;3.55;;
68353;SDS011;55274;43.060;25.618;2023-05-10T00:39:26;6.00;;;2.88;;
68353;SDS011;55274;43.060;25.618;2023-05-10T00:41:53;5.95;;;3.05;;
68353;SDS011;55274;43.060;25.618;2023-05-10T00:44:19;7.60;;;3.20;;
68353;SDS011;55274;43.060;25.618;2023-05-10T00:46:45;5.43;;;3.58;;
68353;SDS011;55274;43.060;25.618;2023-05-10T00:49:12;7.68;;;2.90;;
68353;SDS011;55274;43.060;25.618;2023-05-10T00:51:38;5.10;;;3.22;;
68353;SDS011;55274;43.060;25.618;2023-05-10T00:54:03;5.22;;;3.25;;
68353;SDS011;55274;43.060;25.618;2023-05-10T00:56:30;5.80;;;3.20;;
68353;SDS011;55274;43.060;25.618;2023-05-10T00:58:56;4.40;;;2.63;;
68353;SDS011;55274;43.060;25.618;2023-05-10T01:01:22;8.45;;;3.50;;
68353;SDS011;55274;43.060;25.618;2023-05-10T01:03:48;6.07;;;3.10;;
68353;SDS011;55274;43.060;25.618;2023-05-10T01:06:14;6.65;;;3.88;;
68353;SDS011;55274;43.060;25.618;2023-05-10T01:08:40;4.25;;;3.30;;
68353;SDS011;55274;43.060;25.618;2023-05-10T01:11:06;5.63;;;3.25;;
68353;SDS011;55274;43.060;25.618;2023-05-10T01:13:39;7.30;;;3.50;;
68353;SDS011;55274;43.060;25.618;2023-05-10T01:16:07;5.75;;;2.90;;
68353;SDS011;55274;43.060;25.618;2023-05-10T01:18:35;5.75;;;2.75;;
68353;SDS011;55274;43.060;25.618;2023-05-10T01:26:27;5.38;;;3.00;;
68353;SDS011;55274;43.060;25.618;2023-05-10T01:35:03;5.43;;;2.88;;
68353;SDS011;55274;43.060;25.618;2023-05-10T01:37:57;7.10;;;3.20;;
68353;SDS011;55274;43.060;25.618;2023-05-10T01:40:35;7.63;;;3.67;;
68353;SDS011;55274;43.060;25.618;2023-05-10T01:43:25;8.05;;;3.58;;
68353;SDS011;55274;43.060;25.618;2023-05-10T01:45:59;6.07;;;3.42;;
68353;SDS011;55274;43.060;25.618;2023-05-10T01:48:35;8.93;;;3.20;;
68353;SDS011;55274;43.060;25.618;2023-05-10T01:51:05;7.22;;;3.83;;
68353;SDS011;55274;43.060;25.618;2023-05-10T01:53:33;6.43;;;3.42;;
68353;SDS011;55274;43.060;25.618;2023-05-10T01:56:02;8.23;;;3.10;;
68353;SDS011;55274;43.060;25.618;2023-05-10T01:58:30;5.68;;;3.53;;
68353;SDS011;55274;43.060;25.618;2023-05-10T02:00:58;8.25;;;3.45;;
68353;SDS011;55274;43.060;25.618;2023-05-10T02:03:26;9.57;;;3.88;;
68353;SDS011;55274;43.060;25.618;2023-05-10T02:05:53;14.38;;;4.07;;
68353;SDS011;55274;43.060;25.618;2023-05-10T02:08:21;12.25;;;3.55;;
68353;SDS011;55274;43.060;25.618;2023-05-10T02:10:49;12.23;;;3.83;;
68353;SDS011;55274;43.060;25.618;2023-05-10T02:13:18;10.63;;;2.97;;
68353;SDS011;55274;43.060;25.618;2023-05-10T02:15:45;5.70;;;2.75;;
68353;SDS011;55274;43.060;25.618;2023-05-10T02:18:13;6.63;;;3.17;;
68353;SDS011;55274;43.060;25.618;2023-05-10T02:20:40;6.35;;;3.10;;
68353;SDS011;55274;43.060;25.618;2023-05-10T02:23:08;6.70;;;3.13;;
68353;SDS011;55274;43.060;25.618;2023-05-10T02:25:36;4.18;;;2.92;;
68353;SDS011;55274;43.060;25.618;2023-05-10T02:28:04;6.03;;;2.78;;
68353;SDS011;55274;43.060;25.618;2023-05-10T02:30:32;6.53;;;3.00;;
68353;SDS011;55274;43.060;25.618;2023-05-10T02:32:59;4.18;;;2.92;;
68353;SDS011;55274;43.060;25.618;2023-05-10T02:35:28;7.72;;;2.90;;
68353;SDS011;55274;43.060;25.618;2023-05-10T02:37:55;4.63;;;3.10;;
68353;SDS011;55274;43.060;25.618;2023-05-10T02:40:23;5.70;;;2.53;;
68353;SDS011;55274;43.060;25.618;2023-05-10T02:42:52;5.80;;;2.92;;
68353;SDS011;55274;43.060;25.618;2023-05-10T02:45:20;6.63;;;3.13;;
68353;SDS011;55274;43.060;25.618;2023-05-10T02:47:49;8.23;;;3.13;;
68353;SDS011;55274;43.060;25.618;2023-05-10T02:50:16;9.93;;;3.97;;
68353;SDS011;55274;43.060;25.618;2023-05-10T02:52:47;10.88;;;4.10;;
68353;SDS011;55274;43.060;25.618;2023-05-10T02:55:16;10.60;;;4.78;;
68353;SDS011;55274;43.060;25.618;2023-05-10T02:57:48;10.18;;;5.28;;
68353;SDS011;55274;43.060;25.618;2023-05-10T03:00:17;7.43;;;3.60;;
68353;SDS011;55274;43.060;25.618;2023-05-10T03:02:43;6.18;;;3.90;;
68353;SDS011;55274;43.060;25.618;2023-05-10T03:05:08;11.93;;;3.65;;
68353;SDS011;55274;43.060;25.618;2023-05-10T03:07:34;11.18;;;3.70;;
68353;SDS011;55274;43.060;25.618;2023-05-10T03:10:00;10.20;;;3.83;;
68353;SDS011;55274;43.060;25.618;2023-05-10T03:18:06;10.45;;;4.50;;
68353;SDS011;55274;43.060;25.618;2023-05-10T03:20:35;15.73;;;5.00;;
68353;SDS011;55274;43.060;25.618;2023-05-10T03:23:07;15.95;;;4.85;;
68353;SDS011;55274;43.060;25.618;2023-05-10T03:25:47;7.72;;;3.70;;
68353;SDS011;55274;43.060;25.618;2023-05-10T03:28:15;13.07;;;3.45;;
68353;SDS011;55274;43.060;25.618;2023-05-10T03:30:43;12.73;;;3.58;;
68353;SDS011;55274;43.060;25.618;2023-05-10T03:33:10;11.43;;;3.58;;
68353;SDS011;55274;43.060;25.618;2023-05-10T03:35:35;15.18;;;3.95;;
68353;SDS011;55274;43.060;25.618;2023-05-10T03:38:01;10.07;;;3.90;;
68353;SDS011;55274;43.060;25.618;2023-05-10T03:40:27;18.92;;;9.95;;
68353;SDS011;55274;43.060;25.618;2023-05-10T03:42:56;7.25;;;3.72;;
68353;SDS011;55274;43.060;25.618;2023-05-10T03:45:22;7.68;;;4.15;;
68353;SDS011;55274;43.060;25.618;2023-05-10T03:47:48;12.05;;;4.00;;
68353;SDS011;55274;43.060;25.618;2023-05-10T03:50:14;19.17;;;4.35;;
68353;SDS011;55274;43.060;25.618;2023-05-10T03:52:40;10.27;;;4.68;;
68353;SDS011;55274;43.060;25.618;2023-05-10T03:55:06;15.38;;;4.60;;
68353;SDS011;55274;43.060;25.618;2023-05-10T03:57:32;10.77;;;3.85;;
68353;SDS011;55274;43.060;25.618;2023-05-10T03:59:59;13.30;;;3.50;;
68353;SDS011;55274;43.060;25.618;2023-05-10T04:02:25;6.18;;;4.00;;
68353;SDS011;55274;43.060;25.618;2023-05-10T04:04:50;9.60;;;4.03;;
68353;SDS011;55274;43.060;25.618;2023-05-10T04:07:16;16.00;;;4.20;;
68353;SDS011;55274;43.060;25.618;2023-05-10T04:09:43;17.40;;;4.82;;
68353;SDS011;55274;43.060;25.618;2023-05-10T04:12:08;12.25;;;3.95;;
68353;SDS011;55274;43.060;25.618;2023-05-10T04:14:34;31.55;;;5.07;;
68353;SDS011;55274;43.060;25.618;2023-05-10T04:17:00;13.35;;;5.05;;
68353;SDS011;55274;43.060;25.618;2023-05-10T04:19:29;20.90;;;4.95;;
68353;SDS011;55274;43.060;25.618;2023-05-10T04:21:55;7.00;;;3.30;;
68353;SDS011;55274;43.060;25.618;2023-05-10T04:24:21;6.80;;;3.95;;
68353;SDS011;55274;43.060;25.618;2023-05-10T04:26:47;13.02;;;3.55;;
68353;SDS011;55274;43.060;25.618;2023-05-10T04:29:13;9.43;;;3.80;;
68353;SDS011;55274;43.060;25.618;2023-05-10T04:31:38;8.25;;;3.42;;
68353;SDS011;55274;43.060;25.618;2023-05-10T04:34:04;11.57;;;3.60;;
68353;SDS011;55274;43.060;25.618;2023-05-10T04:36:30;6.40;;;2.80;;
68353;SDS011;55274;43.060;25.618;2023-05-10T04:38:57;10.90;;;3.50;;
68353;SDS011;55274;43.060;25.618;2023-05-10T04:41:23;6.05;;;2.60;;
68353;SDS011;55274;43.060;25.618;2023-05-10T04:43:50;4.70;;;2.30;;
68353;SDS011;55274;43.060;25.618;2023-05-10T04:46:16;12.85;;;3.25;;
68353;SDS011;55274;43.060;25.618;2023-05-10T04:48:41;21.23;;;3.85;;
68353;SDS011;55274;43.060;25.618;2023-05-10T04:51:07;9.82;;;3.20;;
68353;SDS011;55274;43.060;25.618;2023-05-10T04:53:34;8.27;;;3.05;;
68353;SDS011;55274;43.060;25.618;2023-05-10T04:55:59;9.57;;;2.78;;
68353;SDS011;55274;43.060;25.618;2023-05-10T04:58:25;9.73;;;3.08;;
68353;SDS011;55274;43.060;25.618;2023-05-10T05:00:51;9.32;;;3.45;;
68353;SDS011;55274;43.060;25.618;2023-05-10T05:03:17;3.30;;;2.40;;
68353;SDS011;55274;43.060;25.618;2023-05-10T05:05:43;6.10;;;2.45;;
68353;SDS011;55274;43.060;25.618;2023-05-10T05:08:09;6.60;;;2.83;;
68353;SDS011;55274;43.060;25.618;2023-05-10T05:10:35;5.43;;;2.72;;
68353;SDS011;55274;43.060;25.618;2023-05-10T05:13:01;7.90;;;2.63;;
68353;SDS011;55274;43.060;25.618;2023-05-10T05:15:26;5.53;;;2.65;;
68353;SDS011;55274;43.060;25.618;2023-05-10T05:17:52;5.05;;;2.63;;
68353;SDS011;55274;43.060;25.618;2023-05-10T05:20:18;6.38;;;2.40;;
68353;SDS011;55274;43.060;25.618;2023-05-10T05:22:44;8.02;;;2.95;;
68353;SDS011;55274;43.060;25.618;2023-05-10T05:25:11;6.45;;;2.95;;
68353;SDS011;55274;43.060;25.618;2023-05-10T05:27:37;8.27;;;2.42;;
68353;SDS011;55274;43.060;25.618;2023-05-10T05:30:03;6.70;;;3.30;;
68353;SDS011;55274;43.060;25.618;2023-05-10T05:32:29;5.15;;;2.45;;
68353;SDS011;55274;43.060;25.618;2023-05-10T05:34:55;5.05;;;2.40;;
68353;SDS011;55274;43.060;25.618;2023-05-10T05:37:21;6.38;;;2.97;;
68353;SDS011;55274;43.060;25.618;2023-05-10T05:39:47;9.23;;;3.90;;
68353;SDS011;55274;43.060;25.618;2023-05-10T05:42:13;10.52;;;2.83;;
68353;SDS011;55274;43.060;25.618;2023-05-10T05:44:41;8.73;;;2.60;;
68353;SDS011;55274;43.060;25.618;2023-05-10T05:47:07;3.75;;;2.55;;
68353;SDS011;55274;43.060;25.618;2023-05-10T05:49:33;5.50;;;2.40;;
68353;SDS011;55274;43.060;25.618;2023-05-10T05:51:59;7.30;;;2.35;;
68353;SDS011;55274;43.060;25.618;2023-05-10T05:54:26;4.50;;;2.30;;
68353;SDS011;55274;43.060;25.618;2023-05-10T05:56:55;3.70;;;2.28;;
68353;SDS011;55274;43.060;25.618;2023-05-10T05:59:24;4.50;;;2.05;;
68353;SDS011;55274;43.060;25.618;2023-05-10T06:01:50;5.10;;;2.08;;
68353;SDS011;55274;43.060;25.618;2023-05-10T06:04:16;7.75;;;3.28;;
68353;SDS011;55274;43.060;25.618;2023-05-10T06:06:42;16.80;;;3.50;;
68353;SDS011;55274;43.060;25.618;2023-05-10T06:09:08;11.57;;;3.10;;
68353;SDS011;55274;43.060;25.618;2023-05-10T06:11:34;7.13;;;2.03;;
68353;SDS011;55274;43.060;25.618;2023-05-10T06:14:01;16.50;;;2.92;;
68353;SDS011;55274;43.060;25.618;2023-05-10T06:16:27;16.63;;;2.90;;
68353;SDS011;55274;43.060;25.618;2023-05-10T06:18:53;8.32;;;2.63;;
68353;SDS011;55274;43.060;25.618;2023-05-10T06:21:19;11.63;;;2.83;;
68353;SDS011;55274;43.060;25.618;2023-05-10T06:23:44;9.43;;;2.42;;
68353;SDS011;55274;43.060;25.618;2023-05-10T06:28:45;13.38;;;2.35;;
68353;SDS011;55274;43.060;25.618;2023-05-10T06:31:11;3.35;;;1.90;;
68353;SDS011;55274;43.060;25.618;2023-05-10T06:33:37;19.17;;;2.75;;
68353;SDS011;55274;43.060;25.618;2023-05-10T06:36:03;9.00;;;2.20;;
68353;SDS011;55274;43.060;25.618;2023-05-10T06:38:29;10.45;;;2.20;;
68353;SDS011;55274;43.060;25.618;2023-05-10T06:40:54;6.55;;;2.42;;
68353;SDS011;55274;43.060;25.618;2023-05-10T06:43:20;16.92;;;2.75;;
68353;SDS011;55274;43.060;25.618;2023-05-10T06:45:47;8.82;;;2.10;;
68353;SDS011;55274;43.060;25.618;2023-05-10T06:48:13;4.57;;;1.92;;
68353;SDS011;55274;43.060;25.618;2023-05-10T06:50:39;8.15;;;2.75;;
68353;SDS011;55274;43.060;25.618;2023-05-10T06:53:05;9.20;;;3.03;;
68353;SDS011;55274;43.060;25.618;2023-05-10T06:55:31;7.38;;;2.65;;
68353;SDS011;55274;43.060;25.618;2023-05-10T06:57:56;7.22;;;2.58;;
68353;SDS011;55274;43.060;25.618;2023-05-10T07:00:22;8.95;;;2.97;;
68353;SDS011;55274;43.060;25.618;2023-05-10T07:02:48;6.03;;;2.40;;
68353;SDS011;55274;43.060;25.618;2023-05-10T07:05:14;12.18;;;1.90;;
68353;SDS011;55274;43.060;25.618;2023-05-10T07:07:40;15.60;;;3.55;;
68353;SDS011;55274;43.060;25.618;2023-05-10T07:10:06;5.20;;;2.03;;
68353;SDS011;55274;43.060;25.618;2023-05-10T07:12:32;10.05;;;2.70;;
68353;SDS011;55274;43.060;25.618;2023-05-10T07:14:58;5.72;;;2.28;;
68353;SDS011;55274;43.060;25.618;2023-05-10T07:17:24;5.22;;;2.47;;
68353;SDS011;55274;43.060;25.618;2023-05-10T07:19:50;6.28;;;2.40;;
68353;SDS011;55274;43.060;25.618;2023-05-10T07:22:16;14.32;;;3.13;;
68353;SDS011;55274;43.060;25.618;2023-05-10T07:24:42;6.93;;;2.63;;
68353;SDS011;55274;43.060;25.618;2023-05-10T07:27:07;5.47;;;2.20;;
68353;SDS011;55274;43.060;25.618;2023-05-10T07:29:34;7.05;;;2.35;;
68353;SDS011;55274;43.060;25.618;2023-05-10T07:32:00;7.72;;;2.38;;
68353;SDS011;55274;43.060;25.618;2023-05-10T07:34:26;4.55;;;2.00;;
68353;SDS011;55274;43.060;25.618;2023-05-10T07:36:52;6.85;;;2.40;;
68353;SDS011;55274;43.060;25.618;2023-05-10T07:39:18;4.63;;;1.88;;
68353;SDS011;55274;43.060;25.618;2023-05-10T07:41:45;3.83;;;2.20;;
68353;SDS011;55274;43.060;25.618;2023-05-10T07:44:11;6.43;;;2.28;;
68353;SDS011;55274;43.060;25.618;2023-05-10T07:46:37;5.65;;;2.35;;
68353;SDS011;55274;43.060;25.618;2023-05-10T07:49:03;6.50;;;2.30;;
68353;SDS011;55274;43.060;25.618;2023-05-10T07:51:29;7.80;;;2.10;;
68353;SDS011;55274;43.060;25.618;2023-05-10T07:53:55;15.27;;;2.65;;
68353;SDS011;55274;43.060;25.618;2023-05-10T07:56:25;8.55;;;2.15;;
68353;SDS011;55274;43.060;25.618;2023-05-10T07:59:03;3.78;;;2.08;;
68353;SDS011;55274;43.060;25.618;2023-05-10T08:01:31;9.00;;;2.47;;
68353;SDS011;55274;43.060;25.618;2023-05-10T08:03:58;11.43;;;2.13;;
68353;SDS011;55274;43.060;25.618;2023-05-10T08:06:25;4.32;;;1.80;;
68353;SDS011;55274;43.060;25.618;2023-05-10T08:08:53;2.70;;;1.40;;
68353;SDS011;55274;43.060;25.618;2023-05-10T08:11:22;2.40;;;1.70;;
68353;SDS011;55274;43.060;25.618;2023-05-10T08:13:48;5.82;;;2.00;;
68353;SDS011;55274;43.060;25.618;2023-05-10T08:16:15;2.15;;;1.60;;
68353;SDS011;55274;43.060;25.618;2023-05-10T08:18:42;12.68;;;2.60;;
68353;SDS011;55274;43.060;25.618;2023-05-10T08:21:10;4.97;;;1.88;;
68353;SDS011;55274;43.060;25.618;2023-05-10T08:23:36;33.15;;;3.20;;
68353;SDS011;55274;43.060;25.618;2023-05-10T08:26:02;5.18;;;1.85;;
68353;SDS011;55274;43.060;25.618;2023-05-10T08:28:28;3.33;;;1.58;;
68353;SDS011;55274;43.060;25.618;2023-05-10T08:30:54;3.50;;;1.52;;
68353;SDS011;55274;43.060;25.618;2023-05-10T08:33:20;5.43;;;1.67;;
68353;SDS011;55274;43.060;25.618;2023-05-10T08:35:46;9.23;;;2.58;;
68353;SDS011;55274;43.060;25.618;2023-05-10T08:38:12;15.63;;;2.30;;
68353;SDS011;55274;43.060;25.618;2023-05-10T08:40:38;3.85;;;1.70;;
68353;SDS011;55274;43.060;25.618;2023-05-10T08:43:09;9.48;;;2.28;;
68353;SDS011;55274;43.060;25.618;2023-05-10T08:45:40;14.38;;;2.25;;
68353;SDS011;55274;43.060;25.618;2023-05-10T08:48:08;6.53;;;1.80;;
68353;SDS011;55274;43.060;25.618;2023-05-10T08:50:38;7.28;;;1.90;;
68353;SDS011;55274;43.060;25.618;2023-05-10T08:53:12;22.63;;;2.83;;
68353;SDS011;55274;43.060;25.618;2023-05-10T08:55:39;15.30;;;2.40;;
68353;SDS011;55274;43.060;25.618;2023-05-10T08:58:07;47.30;;;4.35;;
68353;SDS011;55274;43.060;25.618;2023-05-10T09:00:34;16.75;;;2.85;;
68353;SDS011;55274;43.060;25.618;2023-05-10T09:03:01;13.45;;;2.85;;
68353;SDS011;55274;43.060;25.618;2023-05-10T09:05:27;4.25;;;2.05;;
68353;SDS011;55274;43.060;25.618;2023-05-10T09:07:53;11.48;;;2.80;;
68353;SDS011;55274;43.060;25.618;2023-05-10T09:10:19;4.53;;;2.03;;
68353;SDS011;55274;43.060;25.618;2023-05-10T09:12:46;6.53;;;2.13;;
68353;SDS011;55274;43.060;25.618;2023-05-10T09:15:16;5.68;;;2.30;;
68353;SDS011;55274;43.060;25.618;2023-05-10T09:17:45;21.42;;;2.90;;
68353;SDS011;55274;43.060;25.618;2023-05-10T09:20:12;10.93;;;1.85;;
68353;SDS011;55274;43.060;25.618;2023-05-10T09:22:38;13.05;;;2.25;;
68353;SDS011;55274;43.060;25.618;2023-05-10T09:25:12;12.20;;;2.67;;
68353;SDS011;55274;43.060;25.618;2023-05-10T09:27:40;13.40;;;2.47;;
68353;SDS011;55274;43.060;25.618;2023-05-10T09:30:10;11.05;;;2.60;;
68353;SDS011;55274;43.060;25.618;2023-05-10T09:32:44;4.07;;;2.40;;
68353;SDS011;55274;43.060;25.618;2023-05-10T09:35:18;3.25;;;1.80;;
68353;SDS011;55274;43.060;25.618;2023-05-10T09:37:47;4.70;;;1.77;;
68353;SDS011;55274;43.060;25.618;2023-05-10T09:40:15;9.27;;;2.35;;
68353;SDS011;55274;43.060;25.618;2023-05-10T09:42:56;9.07;;;3.00;;
68353;SDS011;55274;43.060;25.618;2023-05-10T09:45:24;2.97;;;2.00;;
68353;SDS011;55274;43.060;25.618;2023-05-10T09:47:53;11.60;;;1.98;;
68353;SDS011;55274;43.060;25.618;2023-05-10T09:50:19;4.68;;;1.92;;
68353;SDS011;55274;43.060;25.618;2023-05-10T09:52:51;11.75;;;2.40;;
68353;SDS011;55274;43.060;25.618;2023-05-10T09:55:22;5.88;;;1.98;;
68353;SDS011;55274;43.060;25.618;2023-05-10T09:58:04;8.60;;;1.88;;
68353;SDS011;55274;43.060;25.618;2023-05-10T10:00:35;8.13;;;1.58;;
68353;SDS011;55274;43.060;25.618;2023-05-10T10:05:29;18.35;;;2.15;;
68353;SDS011;55274;43.060;25.618;2023-05-10T10:07:56;3.55;;;1.92;;
68353;SDS011;55274;43.060;25.618;2023-05-10T10:10:26;22.65;;;2.75;;
68353;SDS011;55274;43.060;25.618;2023-05-10T10:12:53;16.63;;;2.20;;
68353;SDS011;55274;43.060;25.618;2023-05-10T10:15:20;14.52;;;2.38;;
68353;SDS011;55274;43.060;25.618;2023-05-10T10:17:46;6.53;;;1.90;;
68353;SDS011;55274;43.060;25.618;2023-05-10T10:20:14;4.25;;;1.92;;
68353;SDS011;55274;43.060;25.618;2023-05-10T10:22:40;2.65;;;1.50;;
68353;SDS011;55274;43.060;25.618;2023-05-10T10:25:07;12.43;;;1.42;;
68353;SDS011;55274;43.060;25.618;2023-05-10T10:35:39;9.05;;;2.00;;
68353;SDS011;55274;43.060;25.618;2023-05-10T10:38:07;11.82;;;2.30;;
68353;SDS011;55274;43.060;25.618;2023-05-10T10:40:33;30.25;;;3.83;;
68353;SDS011;55274;43.060;25.618;2023-05-10T10:43:21;18.20;;;2.47;;
68353;SDS011;55274;43.060;25.618;2023-05-10T10:51:38;10.57;;;2.03;;
68353;SDS011;55274;43.060;25.618;2023-05-10T10:54:10;12.05;;;2.38;;
68353;SDS011;55274;43.060;25.618;2023-05-10T10:56:36;22.45;;;2.83;;
68353;SDS011;55274;43.060;25.618;2023-05-10T10:59:02;20.50;;;2.33;;
68353;SDS011;55274;43.060;25.618;2023-05-10T11:01:34;9.25;;;2.20;;
68353;SDS011;55274;43.060;25.618;2023-05-10T11:06:29;4.82;;;1.73;;
68353;SDS011;55274;43.060;25.618;2023-05-10T11:09:08;23.35;;;2.70;;
68353;SDS011;55274;43.060;25.618;2023-05-10T11:11:35;3.53;;;1.40;;
68353;SDS011;55274;43.060;25.618;2023-05-10T11:14:13;7.88;;;2.28;;
68353;SDS011;55274;43.060;25.618;2023-05-10T11:16:42;15.68;;;2.38;;
68353;SDS011;55274;43.060;25.618;2023-05-10T11:19:10;25.95;;;4.43;;
68353;SDS011;55274;43.060;25.618;2023-05-10T11:24:19;17.80;;;2.63;;
68353;SDS011;55274;43.060;25.618;2023-05-10T11:26:46;3.65;;;1.60;;
68353;SDS011;55274;43.060;25.618;2023-05-10T11:29:16;8.00;;;1.73;;
68353;SDS011;55274;43.060;25.618;2023-05-10T11:31:43;10.18;;;1.73;;
68353;SDS011;55274;43.060;25.618;2023-05-10T11:34:10;7.68;;;1.85;;
68353;SDS011;55274;43.060;25.618;2023-05-10T11:36:36;17.98;;;2.90;;
68353;SDS011;55274;43.060;25.618;2023-05-10T11:39:03;5.15;;;1.80;;
68353;SDS011;55274;43.060;25.618;2023-05-10T11:41:30;4.95;;;2.10;;
68353;SDS011;55274;43.060;25.618;2023-05-10T11:43:56;55.40;;;4.97;;
68353;SDS011;55274;43.060;25.618;2023-05-10T11:46:24;4.68;;;2.00;;
68353;SDS011;55274;43.060;25.618;2023-05-10T11:48:56;12.00;;;2.22;;
68353;SDS011;55274;43.060;25.618;2023-05-10T11:51:25;12.60;;;2.30;;
68353;SDS011;55274;43.060;25.618;2023-05-10T11:53:54;2.70;;;1.27;;
68353;SDS011;55274;43.060;25.618;2023-05-10T11:56:21;5.43;;;1.92;;
68353;SDS011;55274;43.060;25.618;2023-05-10T11:58:55;13.68;;;2.10;;
68353;SDS011;55274;43.060;25.618;2023-05-10T12:01:22;7.47;;;1.88;;
68353;SDS011;55274;43.060;25.618;2023-05-10T12:03:50;5.80;;;1.98;;
68353;SDS011;55274;43.060;25.618;2023-05-10T12:06:17;5.13;;;1.90;;
68353;SDS011;55274;43.060;25.618;2023-05-10T12:08:45;3.97;;;1.63;;
68353;SDS011;55274;43.060;25.618;2023-05-10T12:11:11;15.13;;;2.35;;
68353;SDS011;55274;43.060;25.618;2023-05-10T12:13:39;4.75;;;3.30;;
68353;SDS011;55274;43.060;25.618;2023-05-10T12:16:21;14.27;;;2.88;;
68353;SDS011;55274;43.060;25.618;2023-05-10T12:18:52;17.75;;;2.42;;
68353;SDS011;55274;43.060;25.618;2023-05-10T12:21:21;27.38;;;2.63;;
68353;SDS011;55274;43.060;25.618;2023-05-10T12:23:49;2.85;;;1.70;;
68353;SDS011;55274;43.060;25.618;2023-05-10T12:26:16;3.65;;;1.40;;
68353;SDS011;55274;43.060;25.618;2023-05-10T12:28:42;6.80;;;1.92;;
68353;SDS011;55274;43.060;25.618;2023-05-10T12:31:08;9.02;;;2.25;;
68353;SDS011;55274;43.060;25.618;2023-05-10T12:33:41;11.63;;;2.22;;
68353;SDS011;55274;43.060;25.618;2023-05-10T12:36:08;24.15;;;2.92;;
68353;SDS011;55274;43.060;25.618;2023-05-10T12:38:36;19.27;;;2.22;;
68353;SDS011;55274;43.060;25.618;2023-05-10T12:41:09;25.73;;;2.85;;
68353;SDS011;55274;43.060;25.618;2023-05-10T12:43:36;12.48;;;1.73;;
68353;SDS011;55274;43.060;25.618;2023-05-10T12:46:21;23.88;;;2.72;;
68353;SDS011;55274;43.060;25.618;2023-05-10T12:48:50;9.68;;;1.88;;
68353;SDS011;55274;43.060;25.618;2023-05-10T12:51:19;5.53;;;1.50;;
68353;SDS011;55274;43.060;25.618;2023-05-10T12:53:47;52.75;;;3.60;;
68353;SDS011;55274;43.060;25.618;2023-05-10T12:56:13;17.33;;;2.00;;
68353;SDS011;55274;43.060;25.618;2023-05-10T12:58:38;21.70;;;2.80;;
68353;SDS011;55274;43.060;25.618;2023-05-10T13:01:04;6.20;;;2.40;;
68353;SDS011;55274;43.060;25.618;2023-05-10T13:03:30;15.00;;;2.53;;
68353;SDS011;55274;43.060;25.618;2023-05-10T13:05:56;15.88;;;2.20;;
68353;SDS011;55274;43.060;25.618;2023-05-10T13:08:22;10.30;;;2.38;;
68353;SDS011;55274;43.060;25.618;2023-05-10T13:10:48;11.65;;;2.95;;
68353;SDS011;55274;43.060;25.618;2023-05-10T13:13:14;13.20;;;2.65;;
68353;SDS011;55274;43.060;25.618;2023-05-10T13:15:40;7.15;;;1.90;;
68353;SDS011;55274;43.060;25.618;2023-05-10T13:18:05;8.55;;;2.28;;
68353;SDS011;55274;43.060;25.618;2023-05-10T13:20:31;3.17;;;1.58;;
68353;SDS011;55274;43.060;25.618;2023-05-10T13:22:57;3.38;;;1.70;;
68353;SDS011;55274;43.060;25.618;2023-05-10T13:25:23;2.67;;;1.92;;
68353;SDS011;55274;43.060;25.618;2023-05-10T13:27:49;8.82;;;2.17;;
68353;SDS011;55274;43.060;25.618;2023-05-10T13:30:15;13.15;;;2.17;;
68353;SDS011;55274;43.060;25.618;2023-05-10T13:32:40;6.88;;;2.20;;
68353;SDS011;55274;43.060;25.618;2023-05-10T13:35:07;7.18;;;2.28;;
68353;SDS011;55274;43.060;25.618;2023-05-10T13:37:33;2.20;;;1.70;;
68353;SDS011;55274;43.060;25.618;2023-05-10T13:40:02;7.90;;;2.45;;
68353;SDS011;55274;43.060;25.618;2023-05-10T13:42:29;8.70;;;2.33;;
68353;SDS011;55274;43.060;25.618;2023-05-10T13:44:56;7.88;;;1.75;;
68353;SDS011;55274;43.060;25.618;2023-05-10T13:47:22;8.90;;;1.88;;
68353;SDS011;55274;43.060;25.618;2023-05-10T13:49:48;3.08;;;2.00;;
68353;SDS011;55274;43.060;25.618;2023-05-10T13:52:13;7.28;;;2.08;;
68353;SDS011;55274;43.060;25.618;2023-05-10T13:54:39;5.78;;;1.90;;
68353;SDS011;55274;43.060;25.618;2023-05-10T13:57:06;4.45;;;1.90;;
68353;SDS011;55274;43.060;25.618;2023-05-10T13:59:31;27.05;;;3.72;;
68353;SDS011;55274;43.060;25.618;2023-05-10T14:01:58;16.00;;;2.35;;
68353;SDS011;55274;43.060;25.618;2023-05-10T14:04:24;12.40;;;2.25;;
68353;SDS011;55274;43.060;25.618;2023-05-10T14:06:50;9.98;;;2.45;;
68353;SDS011;55274;43.060;25.618;2023-05-10T14:09:16;7.53;;;1.98;;
68353;SDS011;55274;43.060;25.618;2023-05-10T14:11:42;10.65;;;1.80;;
68353;SDS011;55274;43.060;25.618;2023-05-10T14:14:08;3.95;;;1.85;;
68353;SDS011;55274;43.060;25.618;2023-05-10T14:16:34;10.38;;;2.05;;
68353;SDS011;55274;43.060;25.618;2023-05-10T14:19:00;9.85;;;2.20;;
68353;SDS011;55274;43.060;25.618;2023-05-10T14:21:26;2.13;;;1.92;;
68353;SDS011;55274;43.060;25.618;2023-05-10T14:23:54;5.28;;;2.13;;
68353;SDS011;55274;43.060;25.618;2023-05-10T14:26:20;9.10;;;3.13;;
68353;SDS011;55274;43.060;25.618;2023-05-10T14:28:47;2.55;;;1.67;;
68353;SDS011;55274;43.060;25.618;2023-05-10T14:31:13;2.55;;;1.52;;
68353;SDS011;55274;43.060;25.618;2023-05-10T14:33:39;3.90;;;2.10;;
68353;SDS011;55274;43.060;25.618;2023-05-10T14:36:05;10.40;;;1.85;;
68353;SDS011;55274;43.060;25.618;2023-05-10T14:38:32;16.52;;;2.50;;
68353;SDS011;55274;43.060;25.618;2023-05-10T14:40:58;2.17;;;1.70;;
68353;SDS011;55274;43.060;25.618;2023-05-10T14:43:24;3.35;;;1.52;;
68353;SDS011;55274;43.060;25.618;2023-05-10T14:45:49;3.17;;;1.73;;
68353;SDS011;55274;43.060;25.618;2023-05-10T14:48:15;7.97;;;1.80;;
68353;SDS011;55274;43.060;25.618;2023-05-10T14:50:42;3.58;;;2.03;;
68353;SDS011;55274;43.060;25.618;2023-05-10T14:55:59;3.75;;;2.33;;
68353;SDS011;55274;43.060;25.618;2023-05-10T14:58:28;6.22;;;2.30;;
68353;SDS011;55274;43.060;25.618;2023-05-10T15:00:55;6.78;;;1.75;;
68353;SDS011;55274;43.060;25.618;2023-05-10T15:03:21;9.93;;;3.30;;
68353;SDS011;55274;43.060;25.618;2023-05-10T15:05:47;4.43;;;1.67;;
68353;SDS011;55274;43.060;25.618;2023-05-10T15:08:13;3.35;;;1.42;;
68353;SDS011;55274;43.060;25.618;2023-05-10T15:10:39;4.15;;;1.98;;
68353;SDS011;55274;43.060;25.618;2023-05-10T15:13:05;2.65;;;1.60;;
68353;SDS011;55274;43.060;25.618;2023-05-10T15:15:31;3.72;;;3.38;;